ΕΜΥ, Εθνική Μετεωρολογική Υπηρεσία - Δελτία Καιρού, Προγνώσεις

ΑΕΡΟΝΑΥΤΙΛΙΑ

GREEK AIRPORTS CODES

LGAV 191020Z 35010KT 9999 FEW020 SCT040 06/01 Q1032 RMK FEW070 NOSIG=

EUROPEAN AIRPORTS CODES

LFPO 191000Z 26006KT 230V290 9999 OVC030 05/04 Q1029 NOSIG=